Аэропорт: Шереметьево. Москва

ICAO: UUEE

METAR:
2019/05/25 20:00
UUEE 252000Z 18005MPS CAVOK 17/13 Q1005 R24C/CLRD62 R24L/CLRD62 NOSIG
METAR:
2019/05/25 18:22
TAF UUEE 251656Z 2518/2618 17005G10MPS 9999 BKN011 TX22/2612Z TN13/2601Z 
      TEMPO 2518/2606 3100 -SHRA FEW005 BKN015CB PROB40 
      TEMPO 2518/2521 -TSRA BKN015CB 
      BECMG 2603/2605 25003G08MPS 
      TEMPO 2611/2616 3100 -SHRA SCT015CB